createdAt,value
2017-03-30T00:00:23.871Z,990.35
2017-03-30T00:01:33.809Z,990.35
2017-03-30T00:02:44.058Z,990.29
2017-03-30T00:03:53.995Z,990.32
2017-03-30T00:05:04.244Z,990.28
2017-03-30T00:06:14.502Z,990.31
2017-03-30T00:07:24.757Z,990.28
2017-03-30T00:08:34.704Z,990.29
2017-03-30T00:09:44.955Z,990.26
2017-03-30T00:10:54.899Z,990.28
2017-03-30T00:12:05.154Z,990.23
2017-03-30T00:13:15.098Z,990.26
2017-03-30T00:14:25.346Z,990.25
2017-03-30T00:15:35.293Z,990.21
2017-03-30T00:16:45.552Z,990.19
2017-03-30T00:17:55.798Z,990.22
2017-03-30T00:19:05.742Z,990.21
2017-03-30T00:20:15.681Z,990.19
2017-03-30T00:21:25.628Z,990.2
2017-03-30T00:22:35.885Z,990.18
2017-03-30T00:23:45.819Z,990.25
2017-03-30T00:24:56.069Z,990.22
2017-03-30T00:26:06.325Z,990.24
2017-03-30T00:27:16.583Z,990.21
2017-03-30T00:28:26.518Z,990.25
2017-03-30T00:29:36.452Z,990.22
2017-03-30T00:30:46.718Z,990.21
2017-03-30T00:31:56.969Z,990.2
2017-03-30T00:33:07.220Z,990.2
2017-03-30T00:34:17.473Z,990.18
2017-03-30T00:35:27.724Z,990.13
2017-03-30T00:36:37.979Z,990.11
2017-03-30T00:37:48.231Z,990.08
2017-03-30T00:38:58.484Z,990.06
2017-03-30T00:40:08.735Z,990
2017-03-30T00:41:18.675Z,990.03
2017-03-30T00:42:28.926Z,990.07
2017-03-30T00:43:39.178Z,990.06
2017-03-30T00:44:49.427Z,990.07
2017-03-30T00:45:59.675Z,990.04
2017-03-30T00:47:09.928Z,990.05
2017-03-30T00:48:19.866Z,990.01
2017-03-30T00:49:29.805Z,990
2017-03-30T00:50:39.749Z,990
2017-03-30T00:51:49.686Z,990
2017-03-30T00:52:59.939Z,990
2017-03-30T00:54:10.189Z,989.99
2017-03-30T00:55:20.439Z,989.98
2017-03-30T00:56:30.691Z,989.95
2017-03-30T00:57:40.630Z,989.97
2017-03-30T00:58:50.567Z,989.94
2017-03-30T01:00:00.819Z,989.92
2017-03-30T01:01:10.761Z,989.89
2017-03-30T01:02:21.051Z,989.89
2017-03-30T01:03:31.306Z,989.88
2017-03-30T01:04:40.935Z,989.85
2017-03-30T01:05:51.188Z,989.9
2017-03-30T01:07:01.451Z,989.87
2017-03-30T01:08:11.395Z,989.89
2017-03-30T01:09:21.653Z,989.87
2017-03-30T01:10:31.903Z,989.87
2017-03-30T01:11:42.154Z,989.9
2017-03-30T01:12:52.422Z,989.89
2017-03-30T01:14:02.674Z,989.91
2017-03-30T01:15:12.611Z,989.88
2017-03-30T01:16:22.549Z,989.86
2017-03-30T01:17:32.807Z,989.87
2017-03-30T01:18:43.083Z,989.87
2017-03-30T01:19:53.337Z,989.91
2017-03-30T01:21:03.282Z,989.88
2017-03-30T01:22:13.529Z,989.86
2017-03-30T01:23:23.778Z,989.83
2017-03-30T01:24:33.718Z,989.84
2017-03-30T01:25:43.665Z,989.83
2017-03-30T01:26:53.917Z,989.85
2017-03-30T01:28:04.169Z,989.84
2017-03-30T01:29:14.425Z,989.87
2017-03-30T01:30:24.678Z,989.81
2017-03-30T01:31:34.618Z,989.83
2017-03-30T01:32:44.554Z,989.81
2017-03-30T01:33:54.816Z,989.83
2017-03-30T01:35:05.067Z,989.85
2017-03-30T01:36:15.316Z,989.86
2017-03-30T01:37:25.568Z,989.82
2017-03-30T01:38:35.513Z,989.82
2017-03-30T01:39:45.773Z,989.82
2017-03-30T01:40:56.076Z,989.8
2017-03-30T01:42:06.323Z,989.8
2017-03-30T01:43:15.952Z,989.77
2017-03-30T01:44:26.207Z,989.81
2017-03-30T01:45:36.456Z,989.8
2017-03-30T01:46:46.707Z,989.75
2017-03-30T01:47:56.964Z,989.7
2017-03-30T01:49:06.901Z,989.7
2017-03-30T01:50:16.843Z,989.67
2017-03-30T01:51:27.097Z,989.72
2017-03-30T01:52:37.066Z,989.69
2017-03-30T01:53:47.318Z,989.63
2017-03-30T01:54:57.571Z,989.6
2017-03-30T01:56:07.509Z,989.58
2017-03-30T01:57:17.759Z,989.58
2017-03-30T01:58:27.386Z,989.58
2017-03-30T01:59:37.662Z,989.58
2017-03-30T02:00:47.919Z,989.59
2017-03-30T02:01:57.857Z,989.58
2017-03-30T02:03:08.116Z,989.58
2017-03-30T02:04:18.367Z,989.52
2017-03-30T02:05:28.622Z,989.55
2017-03-30T02:06:38.563Z,989.55
2017-03-30T02:07:48.502Z,989.54
2017-03-30T02:08:58.753Z,989.55
2017-03-30T02:10:09.010Z,989.56
2017-03-30T02:11:19.263Z,989.6
2017-03-30T02:12:29.199Z,989.55
2017-03-30T02:13:39.450Z,989.53
2017-03-30T02:14:49.395Z,989.52
2017-03-30T02:15:59.649Z,989.53
2017-03-30T02:17:09.593Z,989.53
2017-03-30T02:18:19.854Z,989.5
2017-03-30T02:19:30.107Z,989.47
2017-03-30T02:20:40.353Z,989.48
2017-03-30T02:21:50.303Z,989.48
2017-03-30T02:23:00.560Z,989.46
2017-03-30T02:24:10.805Z,989.43
2017-03-30T02:25:20.744Z,989.47
2017-03-30T02:26:30.373Z,989.46
2017-03-30T02:27:40.313Z,989.47
2017-03-30T02:28:50.573Z,989.45
2017-03-30T02:30:00.830Z,989.43
2017-03-30T02:31:10.773Z,989.4
2017-03-30T02:32:20.398Z,989.39
2017-03-30T02:33:30.655Z,989.45
2017-03-30T02:34:40.592Z,989.43
2017-03-30T02:35:50.530Z,989.44
2017-03-30T02:37:00.778Z,989.43
2017-03-30T02:38:10.719Z,989.38
2017-03-30T02:39:20.976Z,989.41
2017-03-30T02:40:30.912Z,989.37
2017-03-30T02:41:41.164Z,989.41
2017-03-30T02:42:51.110Z,989.39
2017-03-30T02:44:01.378Z,989.35
2017-03-30T02:45:11.636Z,989.37
2017-03-30T02:46:21.889Z,989.38
2017-03-30T02:47:32.157Z,989.4
2017-03-30T02:48:42.412Z,989.43
2017-03-30T02:49:52.662Z,989.39
2017-03-30T02:51:02.608Z,989.43
2017-03-30T02:52:12.861Z,989.37
2017-03-30T02:53:22.804Z,989.39
2017-03-30T02:54:32.744Z,989.3
2017-03-30T02:55:42.992Z,989.32
2017-03-30T02:56:53.268Z,989.33
2017-03-30T02:58:03.517Z,989.33
2017-03-30T02:59:13.777Z,989.32
2017-03-30T03:00:24.025Z,989.33
2017-03-30T03:01:34.279Z,989.29
2017-03-30T03:02:44.539Z,989.28
2017-03-30T03:03:54.795Z,989.26
2017-03-30T03:05:05.061Z,989.26
2017-03-30T03:06:15.003Z,989.27
2017-03-30T03:07:25.258Z,989.29
2017-03-30T03:08:35.512Z,989.28
2017-03-30T03:09:45.453Z,989.22
2017-03-30T03:10:55.391Z,989.22
2017-03-30T03:12:05.639Z,989.22
2017-03-30T03:13:15.888Z,989.2
2017-03-30T03:14:25.834Z,989.19
2017-03-30T03:15:35.794Z,989.14
2017-03-30T03:16:45.737Z,989.14
2017-03-30T03:17:55.986Z,989.15
2017-03-30T03:19:06.235Z,989.08
2017-03-30T03:20:16.479Z,989.06
2017-03-30T03:21:26.423Z,989.04
2017-03-30T03:22:36.679Z,989.08
2017-03-30T03:23:46.940Z,989.08
2017-03-30T03:24:57.199Z,989.06
2017-03-30T03:26:07.460Z,989.04
2017-03-30T03:27:17.716Z,989
2017-03-30T03:28:28.016Z,988.98
2017-03-30T03:29:37.957Z,989
2017-03-30T03:30:48.215Z,988.99
2017-03-30T03:31:58.466Z,988.98
2017-03-30T03:33:08.720Z,988.97
2017-03-30T03:34:18.967Z,988.94
2017-03-30T03:35:28.904Z,988.92
2017-03-30T03:36:39.157Z,988.93
2017-03-30T03:37:49.406Z,988.9
2017-03-30T03:38:59.656Z,988.93
2017-03-30T03:40:09.605Z,988.96
2017-03-30T03:41:21.863Z,988.91
2017-03-30T03:42:31.806Z,988.93
2017-03-30T03:43:42.058Z,988.9
2017-03-30T03:44:51.997Z,988.85
2017-03-30T03:46:02.318Z,988.85
2017-03-30T03:47:12.575Z,988.84
2017-03-30T03:48:22.516Z,988.83
2017-03-30T03:49:32.457Z,988.83
2017-03-30T03:50:42.707Z,988.8
2017-03-30T03:51:52.959Z,988.82
2017-03-30T03:53:02.594Z,988.78
2017-03-30T03:54:12.532Z,988.73
2017-03-30T03:55:22.811Z,988.72
2017-03-30T03:56:33.061Z,988.71
2017-03-30T03:57:43.311Z,988.69
2017-03-30T03:58:53.596Z,988.7
2017-03-30T04:00:03.873Z,988.73
2017-03-30T04:01:14.126Z,988.65
2017-03-30T04:02:24.382Z,988.69
2017-03-30T04:03:34.633Z,988.75
2017-03-30T04:04:44.568Z,988.69
2017-03-30T04:05:54.814Z,988.63
2017-03-30T04:07:05.070Z,988.65
2017-03-30T04:08:15.007Z,988.64
2017-03-30T04:09:25.256Z,988.63
2017-03-30T04:10:35.511Z,988.65
2017-03-30T04:11:45.447Z,988.59
2017-03-30T04:12:55.709Z,988.57
2017-03-30T04:14:05.974Z,988.54
2017-03-30T04:15:15.916Z,988.49
2017-03-30T04:16:25.859Z,988.46
2017-03-30T04:17:35.798Z,988.45
2017-03-30T04:18:45.742Z,988.43
2017-03-30T04:19:55.995Z,988.38
2017-03-30T04:21:06.252Z,988.36
2017-03-30T04:22:16.532Z,988.35
2017-03-30T04:23:26.783Z,988.32
2017-03-30T04:24:37.035Z,988.31
2017-03-30T04:25:47.288Z,988.35
2017-03-30T04:26:57.548Z,988.38
2017-03-30T04:28:07.799Z,988.35
2017-03-30T04:29:17.735Z,988.39
2017-03-30T04:30:27.675Z,988.32
2017-03-30T04:31:37.614Z,988.36
2017-03-30T04:32:47.867Z,988.33
2017-03-30T04:33:57.811Z,988.34
2017-03-30T04:35:08.059Z,988.32
2017-03-30T04:36:18.313Z,988.29
2017-03-30T04:37:28.253Z,988.29
2017-03-30T04:38:38.200Z,988.3
2017-03-30T04:39:48.141Z,988.29
2017-03-30T04:40:58.389Z,988.3
2017-03-30T04:42:08.642Z,988.39
2017-03-30T04:43:18.896Z,988.28
2017-03-30T04:44:28.863Z,988.32
2017-03-30T04:45:38.797Z,988.31
2017-03-30T04:46:49.051Z,988.26
2017-03-30T04:47:59.312Z,988.24
2017-03-30T04:49:09.566Z,988.25
2017-03-30T04:50:19.816Z,988.18
2017-03-30T04:51:30.075Z,988.2
2017-03-30T04:52:40.018Z,988.18
2017-03-30T04:53:50.266Z,988.16
2017-03-30T04:55:00.521Z,988.15
2017-03-30T04:56:10.775Z,988.14
2017-03-30T04:58:33.610Z,988.12
2017-03-30T04:59:43.865Z,988.14
2017-03-30T05:00:53.808Z,988.09
2017-03-30T05:02:04.066Z,988.15
2017-03-30T05:03:14.012Z,988.19
2017-03-30T05:04:23.960Z,988.21
2017-03-30T05:05:33.904Z,988.18
2017-03-30T05:06:44.163Z,988.2
2017-03-30T05:07:54.416Z,988.22
2017-03-30T05:09:04.672Z,988.21
2017-03-30T05:10:14.924Z,988.19
2017-03-30T05:11:25.178Z,988.17
2017-03-30T05:12:35.119Z,988.15
2017-03-30T05:13:45.373Z,988.18
2017-03-30T05:14:55.641Z,988.17
2017-03-30T05:16:05.578Z,988.15
2017-03-30T05:17:15.833Z,988.16
2017-03-30T05:18:26.088Z,988.15
2017-03-30T05:19:36.342Z,988.18
2017-03-30T05:20:46.594Z,988.13
2017-03-30T05:21:56.843Z,988.15
2017-03-30T05:23:06.466Z,988.15
2017-03-30T05:24:16.723Z,988.08
2017-03-30T05:25:26.666Z,988.07
2017-03-30T05:26:36.919Z,988.11
2017-03-30T05:27:47.173Z,988.03
2017-03-30T05:28:57.427Z,988.06
2017-03-30T05:30:07.679Z,988.06
2017-03-30T05:31:17.933Z,988.09
2017-03-30T05:32:28.188Z,988.09
2017-03-30T05:33:38.441Z,988.06
2017-03-30T05:34:48.375Z,988.04
2017-03-30T05:35:58.628Z,988.04
2017-03-30T05:37:08.571Z,988.01
2017-03-30T05:38:18.823Z,987.98
2017-03-30T05:39:28.766Z,987.99
2017-03-30T05:40:39.020Z,988.02
2017-03-30T05:41:49.290Z,988
2017-03-30T05:42:59.230Z,987.92
2017-03-30T05:44:09.483Z,987.96
2017-03-30T05:45:19.740Z,987.9
2017-03-30T05:46:29.683Z,987.9
2017-03-30T05:47:39.942Z,987.83
2017-03-30T05:48:50.196Z,987.85
2017-03-30T05:50:00.139Z,987.83
2017-03-30T05:51:10.398Z,987.83
2017-03-30T05:52:20.649Z,987.77
2017-03-30T05:53:30.900Z,987.8
2017-03-30T05:54:41.157Z,987.78
2017-03-30T05:55:51.414Z,987.8
2017-03-30T05:57:01.402Z,987.78
2017-03-30T05:58:11.659Z,987.78
2017-03-30T05:59:21.919Z,987.78
2017-03-30T06:00:31.860Z,987.81
2017-03-30T06:01:41.806Z,987.73
2017-03-30T06:02:51.748Z,987.75
2017-03-30T06:04:01.687Z,987.75
2017-03-30T06:05:11.940Z,987.73
2017-03-30T06:06:21.886Z,987.72
2017-03-30T06:07:32.151Z,987.67
2017-03-30T06:08:42.407Z,987.64
2017-03-30T06:09:52.673Z,987.66
2017-03-30T06:11:02.614Z,987.7
2017-03-30T06:12:12.565Z,987.74
2017-03-30T06:13:22.501Z,987.71
2017-03-30T06:14:32.439Z,987.65
2017-03-30T06:15:42.696Z,987.68
2017-03-30T06:16:52.632Z,987.68
2017-03-30T06:18:02.895Z,987.65
2017-03-30T06:19:13.147Z,987.68
2017-03-30T06:20:23.086Z,987.68
2017-03-30T06:21:33.031Z,987.65
2017-03-30T06:22:43.288Z,987.67
2017-03-30T06:23:53.544Z,987.65
2017-03-30T06:25:03.490Z,987.57
2017-03-30T06:26:13.776Z,987.58
2017-03-30T06:27:23.719Z,987.57
2017-03-30T06:28:33.980Z,987.57
2017-03-30T06:29:44.232Z,987.54
2017-03-30T06:30:54.485Z,987.53
2017-03-30T06:32:04.741Z,987.53
2017-03-30T06:33:14.999Z,987.53
2017-03-30T06:34:24.628Z,987.51
2017-03-30T06:35:34.572Z,987.5
2017-03-30T06:36:44.824Z,987.52
2017-03-30T06:37:55.078Z,987.46
2017-03-30T06:39:05.330Z,987.48
2017-03-30T06:40:15.585Z,987.48
2017-03-30T06:41:25.845Z,987.51
2017-03-30T06:42:36.094Z,987.5
2017-03-30T06:43:45.747Z,987.45
2017-03-30T06:44:55.692Z,987.44
2017-03-30T06:46:05.952Z,987.4
2017-03-30T06:47:16.201Z,987.4
2017-03-30T06:48:25.866Z,987.44
2017-03-30T06:49:36.122Z,987.42
2017-03-30T06:50:46.377Z,987.35
2017-03-30T06:51:56.323Z,987.35
2017-03-30T06:53:06.580Z,987.37
2017-03-30T06:54:16.527Z,987.43
2017-03-30T06:55:26.464Z,987.34
2017-03-30T06:56:36.720Z,987.32
2017-03-30T06:57:46.975Z,987.33
2017-03-30T06:58:57.229Z,987.31
2017-03-30T07:00:07.480Z,987.31
2017-03-30T07:01:17.732Z,987.26
2017-03-30T07:02:27.996Z,987.24
2017-03-30T07:03:37.940Z,987.19
2017-03-30T07:04:47.882Z,987.15
2017-03-30T07:05:58.135Z,987.19
2017-03-30T07:07:08.073Z,987.2
2017-03-30T07:08:18.330Z,987.17
2017-03-30T07:09:28.273Z,987.19
2017-03-30T07:10:38.526Z,987.17
2017-03-30T07:11:48.463Z,987.15
2017-03-30T07:12:58.713Z,987.13
2017-03-30T07:14:08.974Z,987.07
2017-03-30T07:15:18.911Z,987.1
2017-03-30T07:16:29.169Z,987.07
2017-03-30T07:17:39.423Z,987.06
2017-03-30T07:18:49.677Z,987.05
2017-03-30T07:19:59.926Z,987.04
2017-03-30T07:21:10.178Z,987.04
2017-03-30T07:22:20.115Z,987.02
2017-03-30T07:23:30.052Z,987.04
2017-03-30T07:24:40.298Z,987.05
2017-03-30T07:25:50.239Z,987.04
2017-03-30T07:27:00.178Z,987.08
2017-03-30T07:28:10.431Z,987.06
2017-03-30T07:29:20.377Z,987.06
2017-03-30T07:30:30.627Z,987.06
2017-03-30T07:31:40.891Z,987.08
2017-03-30T07:32:51.137Z,987.07
2017-03-30T07:34:00.767Z,987.08
2017-03-30T07:35:10.707Z,987.1
2017-03-30T07:36:20.961Z,986.99
2017-03-30T07:37:31.219Z,986.99
2017-03-30T07:38:41.468Z,986.92
2017-03-30T07:39:51.724Z,986.93
2017-03-30T07:41:01.985Z,986.91
2017-03-30T07:42:12.244Z,986.95
2017-03-30T07:43:22.185Z,986.93
2017-03-30T07:44:32.132Z,986.89
2017-03-30T07:45:42.421Z,986.93
2017-03-30T07:46:52.681Z,986.91
2017-03-30T07:48:02.934Z,986.84
2017-03-30T07:49:12.878Z,986.84
2017-03-30T07:50:22.190Z,986.83
2017-03-30T07:51:32.135Z,986.81
2017-03-30T07:52:42.395Z,986.79
2017-03-30T07:53:52.649Z,986.77
2017-03-30T07:55:02.589Z,986.74
2017-03-30T07:56:12.842Z,986.73
2017-03-30T07:57:22.778Z,986.71
2017-03-30T07:58:32.721Z,986.71
2017-03-30T07:59:42.977Z,986.72
2017-03-30T08:00:53.232Z,986.73
2017-03-30T08:02:03.182Z,986.65
2017-03-30T08:03:13.124Z,986.64
2017-03-30T08:04:23.383Z,986.66
2017-03-30T08:05:33.330Z,986.65
2017-03-30T08:06:43.272Z,986.62
2017-03-30T08:07:53.555Z,986.61
2017-03-30T08:09:03.828Z,986.6
2017-03-30T08:10:14.081Z,986.6
2017-03-30T08:11:24.339Z,986.54
2017-03-30T08:12:34.598Z,986.55
2017-03-30T08:13:44.853Z,986.53
2017-03-30T08:14:55.137Z,986.43
2017-03-30T08:16:05.389Z,986.44
2017-03-30T08:17:15.335Z,986.45
2017-03-30T08:18:25.279Z,986.4
2017-03-30T08:19:35.222Z,986.37
2017-03-30T08:20:45.475Z,986.4
2017-03-30T08:21:55.418Z,986.41
2017-03-30T08:23:05.676Z,986.41
2017-03-30T08:24:15.622Z,986.37
2017-03-30T08:25:25.565Z,986.38
2017-03-30T08:26:35.820Z,986.33
2017-03-30T08:27:46.425Z,986.3
2017-03-30T08:28:56.680Z,986.29
2017-03-30T08:30:06.307Z,986.25
2017-03-30T08:31:16.566Z,986.23
2017-03-30T08:32:26.817Z,986.26
2017-03-30T08:33:37.071Z,986.25
2017-03-30T08:34:47.330Z,986.26
2017-03-30T08:35:57.584Z,986.21
2017-03-30T08:37:07.525Z,986.21
2017-03-30T08:38:17.787Z,986.26
2017-03-30T08:39:27.732Z,986.2
2017-03-30T08:40:37.988Z,986.19
2017-03-30T08:41:47.620Z,986.16
2017-03-30T08:42:57.566Z,986.15
2017-03-30T08:44:07.507Z,986.17
2017-03-30T08:45:17.450Z,986.18
2017-03-30T08:46:27.078Z,986.19
2017-03-30T08:47:37.022Z,986.18
2017-03-30T08:48:47.283Z,986.18
2017-03-30T08:49:57.538Z,986.19
2017-03-30T08:51:07.793Z,986.23
2017-03-30T08:52:17.731Z,986.23
2017-03-30T08:53:27.364Z,986.24
2017-03-30T08:54:37.625Z,986.25
2017-03-30T08:55:47.886Z,986.28
2017-03-30T08:56:58.147Z,986.3
2017-03-30T08:58:08.410Z,986.25
2017-03-30T08:59:18.664Z,986.25
2017-03-30T09:00:28.918Z,986.27
2017-03-30T09:01:39.173Z,986.27
2017-03-30T09:02:49.117Z,986.25
2017-03-30T09:03:59.059Z,986.25
2017-03-30T09:05:09.001Z,986.25
2017-03-30T09:06:18.944Z,986.22
2017-03-30T09:07:28.883Z,986.17
2017-03-30T09:08:39.140Z,986.17
2017-03-30T09:09:49.397Z,986.11
2017-03-30T09:10:59.656Z,986.12
2017-03-30T09:12:09.279Z,986.09
2017-03-30T09:13:19.537Z,986.07
2017-03-30T09:14:29.490Z,986.12
2017-03-30T09:15:39.744Z,986.11
2017-03-30T09:16:49.997Z,986.08
2017-03-30T09:18:00.249Z,986.07
2017-03-30T09:19:10.508Z,986.12
2017-03-30T09:20:20.135Z,986.06
2017-03-30T09:21:30.398Z,986.03
2017-03-30T09:22:40.659Z,986.07
2017-03-30T09:23:50.603Z,986.02
2017-03-30T09:25:00.854Z,986.03
2017-03-30T09:26:10.168Z,985.95
2017-03-30T09:27:20.416Z,985.94
2017-03-30T09:28:30.392Z,985.93
2017-03-30T09:29:40.652Z,985.94
2017-03-30T09:30:50.911Z,986
2017-03-30T09:32:01.165Z,985.95
2017-03-30T09:33:11.429Z,985.95
2017-03-30T09:34:21.692Z,985.93
2017-03-30T09:35:31.638Z,985.87
2017-03-30T09:36:41.887Z,985.92
2017-03-30T09:37:52.144Z,985.87
2017-03-30T09:39:02.085Z,985.85
2017-03-30T09:40:12.344Z,985.83
2017-03-30T09:41:22.603Z,985.81
2017-03-30T09:42:32.858Z,985.75
2017-03-30T09:43:43.111Z,985.76
2017-03-30T09:44:53.371Z,985.72
2017-03-30T09:46:03.631Z,985.68
2017-03-30T09:47:13.263Z,985.68
2017-03-30T09:48:23.515Z,985.65
2017-03-30T09:49:33.769Z,985.63
2017-03-30T09:50:44.024Z,985.62
2017-03-30T09:51:54.282Z,985.57
2017-03-30T09:53:04.228Z,985.55
2017-03-30T09:54:14.165Z,985.52
2017-03-30T09:55:24.424Z,985.48
2017-03-30T09:56:34.679Z,985.47
2017-03-30T09:57:44.935Z,985.45
2017-03-30T09:58:55.193Z,985.42
2017-03-30T10:00:05.449Z,985.38
2017-03-30T10:01:15.441Z,985.39
2017-03-30T10:02:25.522Z,985.37
2017-03-30T10:03:35.775Z,985.34
2017-03-30T10:04:46.028Z,985.39
2017-03-30T10:05:56.319Z,985.37
2017-03-30T10:07:06.885Z,985.4
2017-03-30T10:08:17.152Z,985.34
2017-03-30T10:09:27.405Z,985.38
2017-03-30T10:10:37.661Z,985.35
2017-03-30T10:11:47.908Z,985.31
2017-03-30T10:12:57.858Z,985.25
2017-03-30T10:14:08.114Z,985.27
2017-03-30T10:15:18.398Z,985.25
2017-03-30T10:16:28.023Z,985.25
2017-03-30T10:17:37.966Z,985.17
2017-03-30T10:18:48.220Z,985.18
2017-03-30T10:19:58.471Z,985.2
2017-03-30T10:21:08.107Z,985.2
2017-03-30T10:22:18.361Z,985.17
2017-03-30T10:23:28.622Z,985.18
2017-03-30T10:24:38.561Z,985.13
2017-03-30T10:25:48.816Z,985.11
2017-03-30T10:26:59.070Z,985.05
2017-03-30T10:28:09.325Z,985.13
2017-03-30T10:29:19.266Z,985.14
2017-03-30T10:30:29.521Z,985.08
2017-03-30T10:31:39.777Z,985.01
2017-03-30T10:32:50.035Z,985
2017-03-30T10:34:00.289Z,984.99
2017-03-30T10:35:10.546Z,984.98
2017-03-30T10:36:20.492Z,984.91
2017-03-30T10:37:30.820Z,984.85
2017-03-30T10:38:41.083Z,984.86
2017-03-30T10:39:51.335Z,984.83
2017-03-30T10:41:01.290Z,984.84
2017-03-30T10:42:11.553Z,984.82
2017-03-30T10:43:21.502Z,984.87
2017-03-30T10:44:31.439Z,984.83
2017-03-30T10:45:41.388Z,984.77
2017-03-30T10:46:51.645Z,984.71
2017-03-30T10:48:01.905Z,984.74
2017-03-30T10:49:12.157Z,984.73
2017-03-30T10:50:22.098Z,984.67
2017-03-30T10:51:32.036Z,984.65
2017-03-30T10:52:41.980Z,984.59
2017-03-30T10:53:52.236Z,984.59
2017-03-30T10:55:02.490Z,984.57
2017-03-30T10:56:12.746Z,984.51
2017-03-30T10:57:23.000Z,984.51
2017-03-30T10:58:33.258Z,984.5
2017-03-30T10:59:43.199Z,984.47
2017-03-30T11:00:53.460Z,984.46
2017-03-30T11:02:03.406Z,984.47
2017-03-30T11:03:13.667Z,984.46
2017-03-30T11:04:23.928Z,984.35
2017-03-30T11:05:34.185Z,984.32
2017-03-30T11:06:44.446Z,984.3
2017-03-30T11:07:54.081Z,984.29
2017-03-30T11:09:04.335Z,984.32
2017-03-30T11:10:14.601Z,984.34
2017-03-30T11:11:24.858Z,984.38
2017-03-30T11:12:34.798Z,984.33
2017-03-30T11:13:44.738Z,984.27
2017-03-30T11:14:54.683Z,984.27
2017-03-30T11:16:04.941Z,984.24
2017-03-30T11:17:14.890Z,984.21
2017-03-30T11:18:25.147Z,984.15
2017-03-30T11:19:35.402Z,984.09
2017-03-30T11:20:45.344Z,984.11
2017-03-30T11:21:55.293Z,984.14
2017-03-30T11:23:05.550Z,984.09
2017-03-30T11:24:15.810Z,984.1
2017-03-30T11:25:25.756Z,984.08
2017-03-30T11:26:36.019Z,984.14
2017-03-30T11:27:46.272Z,984.1
2017-03-30T11:28:56.220Z,984.09
2017-03-30T11:30:06.478Z,984.09
2017-03-30T11:31:16.420Z,984.06
2017-03-30T11:32:26.363Z,984.05
2017-03-30T11:33:35.999Z,983.99
2017-03-30T11:34:45.638Z,983.97
2017-03-30T11:35:55.890Z,983.97
2017-03-30T11:37:05.830Z,984
2017-03-30T11:38:15.775Z,984.01
2017-03-30T11:39:25.413Z,984.04
2017-03-30T11:40:35.674Z,984.03
2017-03-30T11:41:45.978Z,984
2017-03-30T11:42:55.607Z,983.99
2017-03-30T11:44:05.868Z,983.95
2017-03-30T11:45:15.812Z,983.91
2017-03-30T11:46:25.785Z,983.92
2017-03-30T11:47:36.048Z,983.88
2017-03-30T11:48:46.310Z,983.83
2017-03-30T11:49:56.262Z,983.8
2017-03-30T11:51:06.511Z,983.76
2017-03-30T11:52:16.462Z,983.69
2017-03-30T11:53:26.722Z,983.68
2017-03-30T11:54:36.675Z,983.65
2017-03-30T11:55:46.935Z,983.65
2017-03-30T11:56:56.878Z,983.63
2017-03-30T11:58:07.133Z,983.64
2017-03-30T11:59:16.764Z,983.64
2017-03-30T12:00:27.020Z,983.65
2017-03-30T12:01:37.279Z,983.64
2017-03-30T12:02:47.229Z,983.59
2017-03-30T12:03:57.482Z,983.59
2017-03-30T12:05:07.111Z,983.54
2017-03-30T12:06:17.371Z,983.59
2017-03-30T12:07:27.310Z,983.53
2017-03-30T12:08:37.291Z,983.56
2017-03-30T12:09:46.923Z,983.46
2017-03-30T12:10:57.176Z,983.45
2017-03-30T12:12:07.438Z,983.46
2017-03-30T12:13:17.705Z,983.44
2017-03-30T12:14:27.967Z,983.4
2017-03-30T12:15:37.913Z,983.36
2017-03-30T12:16:48.173Z,983.33
2017-03-30T12:17:58.431Z,983.35
2017-03-30T12:19:08.693Z,983.34
2017-03-30T12:20:18.956Z,983.3
2017-03-30T12:21:29.005Z,983.31
2017-03-30T12:22:39.264Z,983.29
2017-03-30T12:23:49.216Z,983.24
2017-03-30T12:24:59.161Z,983.2
2017-03-30T12:26:09.106Z,983.17
2017-03-30T12:27:19.361Z,983.18
2017-03-30T12:28:29.649Z,983.15
2017-03-30T12:29:39.913Z,983.15
2017-03-30T12:30:50.216Z,983.14
2017-03-30T12:32:00.483Z,983.12
2017-03-30T12:33:10.525Z,983.13
2017-03-30T12:34:20.152Z,983.08
2017-03-30T12:35:30.412Z,983.1
2017-03-30T12:36:40.668Z,983.07
2017-03-30T12:37:50.611Z,983.05
2017-03-30T12:39:02.876Z,983
2017-03-30T12:40:13.142Z,982.95
2017-03-30T12:41:23.398Z,982.91
2017-03-30T12:42:33.346Z,982.94
2017-03-30T12:43:43.606Z,982.91
2017-03-30T12:44:53.549Z,982.83
2017-03-30T12:46:03.493Z,982.8
2017-03-30T12:47:13.438Z,982.76
2017-03-30T12:48:22.443Z,982.72
2017-03-30T12:49:32.730Z,982.7
2017-03-30T12:50:42.683Z,982.65
2017-03-30T12:51:52.625Z,982.63
2017-03-30T12:53:02.879Z,982.62
2017-03-30T12:54:13.188Z,982.61
2017-03-30T12:55:22.812Z,982.54
2017-03-30T12:56:32.757Z,982.5
2017-03-30T12:57:43.032Z,982.43
2017-03-30T12:58:52.975Z,982.38
2017-03-30T13:00:03.229Z,982.35
2017-03-30T13:01:13.488Z,982.34
2017-03-30T13:02:23.429Z,982.34
2017-03-30T13:03:33.685Z,982.37
2017-03-30T13:04:43.947Z,982.34
2017-03-30T13:05:54.212Z,982.38
2017-03-30T13:07:04.469Z,982.36
2017-03-30T13:08:14.727Z,982.35
2017-03-30T13:09:24.984Z,982.29
2017-03-30T13:10:35.250Z,982.28
2017-03-30T13:11:45.508Z,982.24
2017-03-30T13:12:55.776Z,982.26
2017-03-30T13:14:06.046Z,982.2
2017-03-30T13:15:16.297Z,982.18
2017-03-30T13:16:25.938Z,982.11
2017-03-30T13:17:36.198Z,982.05
2017-03-30T13:18:46.152Z,982.11
2017-03-30T13:19:56.091Z,982.09
2017-03-30T13:21:06.346Z,982.08
2017-03-30T13:22:16.602Z,982.07
2017-03-30T13:23:26.558Z,982.1
2017-03-30T13:24:36.504Z,982.07
2017-03-30T13:25:46.764Z,982.12
2017-03-30T13:26:57.014Z,982.1
2017-03-30T13:28:07.272Z,982.11
2017-03-30T13:29:17.221Z,982.2
2017-03-30T13:30:27.484Z,982.12
2017-03-30T13:31:37.749Z,982.1
2017-03-30T13:32:48.011Z,982.13
2017-03-30T13:33:58.268Z,982.1
2017-03-30T13:35:08.212Z,982.05
2017-03-30T13:36:18.474Z,981.99
2017-03-30T13:37:28.736Z,981.97
2017-03-30T13:38:38.989Z,981.94
2017-03-30T13:39:48.927Z,981.92
2017-03-30T13:40:59.187Z,981.85
2017-03-30T13:42:09.134Z,981.86
2017-03-30T13:43:19.085Z,981.82
2017-03-30T13:44:28.713Z,981.78
2017-03-30T13:45:38.971Z,981.72
2017-03-30T13:46:49.230Z,981.69
2017-03-30T13:47:59.490Z,981.69
2017-03-30T13:49:09.431Z,981.63
2017-03-30T13:50:19.688Z,981.62
2017-03-30T13:51:29.320Z,981.62
2017-03-30T13:52:38.949Z,981.61
2017-03-30T13:53:49.203Z,981.6
2017-03-30T13:54:59.150Z,981.57
2017-03-30T13:56:09.408Z,981.59
2017-03-30T13:57:19.349Z,981.57
2017-03-30T13:58:29.287Z,981.55
2017-03-30T13:59:39.232Z,981.52
2017-03-30T14:00:49.173Z,981.49
2017-03-30T14:01:59.431Z,981.49
2017-03-30T14:03:09.682Z,981.48
2017-03-30T14:04:19.635Z,981.42
2017-03-30T14:05:29.577Z,981.34
2017-03-30T14:06:39.830Z,981.35
2017-03-30T14:07:50.091Z,981.35
2017-03-30T14:09:00.349Z,981.32
2017-03-30T14:10:10.601Z,981.29
2017-03-30T14:11:20.232Z,981.36
2017-03-30T14:12:30.179Z,981.28
2017-03-30T14:13:40.434Z,981.22
2017-03-30T14:14:50.373Z,981.18
2017-03-30T14:16:00.635Z,981.16
2017-03-30T14:17:10.896Z,981.14
2017-03-30T14:18:20.527Z,981.17
2017-03-30T14:19:30.785Z,981.08
2017-03-30T14:20:41.037Z,981.1
2017-03-30T14:21:50.981Z,981.05
2017-03-30T14:23:01.246Z,981.03
2017-03-30T14:24:11.501Z,981.06
2017-03-30T14:25:21.755Z,981.05
2017-03-30T14:26:31.698Z,981.05
2017-03-30T14:27:41.963Z,981.03
2017-03-30T14:28:51.589Z,981.03
2017-03-30T14:30:01.849Z,981.09
2017-03-30T14:31:11.480Z,981.04
2017-03-30T14:32:21.740Z,981.01
2017-03-30T14:33:31.686Z,980.97
2017-03-30T14:34:41.949Z,980.98
2017-03-30T14:35:51.917Z,981.01
2017-03-30T14:37:01.855Z,980.99
2017-03-30T14:38:12.106Z,980.97
2017-03-30T14:39:22.362Z,980.93